Sheridan, WY

7:58 PM MDT on August 22, 2014 (GMT -0600)
Johnson County | Change Station
CLOSE
Current Station
Airport
Location: Buffalo,
Elevation: 4967 ft
Nearby Weather Stations

Elev 4967 ft 44.38 °N, 106.72 °W | Updated 5 minutes ago

Light Rain
Light Rain
61 °F
Feels Like 61 °F
N
5
Wind Variable Wind from NNE

Today
High -- | Low -- °F
--% Chance of Precip.
Yesterday
High -- | Low -- °F
Precip. -- in
6:18 AM 8:02 PM
Waning Crescent, 6% visible
Pressure 29.95 in
Visibility 8.0 miles
Clouds Mostly Cloudy 1900 ft
Overcast 2700 ft
Dew Point 57 °F
Humidity 87%
Rainfall 0.21 in
Snow Depth Not available.
UV 0 out of 12
Pollen 6.70 out of 12
Air Quality Not available.
Flu Activity Not available.
METAR KBYG 230153Z AUTO 02004KT 8SM -RA BKN019 OVC027 16/14 A3006 RMK AO2 LTG DSNT S AND SW RAB31 SLP140 P0002 T01610139

More Conditions Fewer Conditions

Pressure 29.95 in
Visibility 8.0 miles
Clouds Mostly Cloudy 1900 ft
Overcast 2700 ft
Dew Point 57 °F
Humidity 87%
Rainfall 0.21 in
Snow Depth Not available.
UV 0 out of 12
Pollen 6.70 out of 12
Air Quality Not available.
Flu Activity Not available.
METAR KBYG 230153Z AUTO 02004KT 8SM -RA BKN019 OVC027 16/14 A3006 RMK AO2 LTG DSNT S AND SW RAB31 SLP140 P0002 T01610139

More Conditions Fewer Conditions

10-Day Weather Forecast

Almanac

Astronomy

Aug. 22, 2014 Rise Set
Actual Time 6:18 AM MDT 8:02 PM MDT
Civil Twilight 5:47 AM MDT 8:33 PM MDT
Nautical Twilight 5:09 AM MDT 9:10 PM MDT
Astronomical Twilight 4:28 AM MDT 9:51 PM MDT
Moon 3:40 AM MDT (8/22) 6:14 PM MDT (8/22)
Length of Visible Light 14h 45m
Length of Day
13h 43m
Tomorrow will be 2m 54s shorter.
Waning Crescent, 6% of the Moon is Illuminated
Today
Waning Crescent
Aug 25
New
Sep 2
First Quarter
Sep 8
Full
Sep 15
Last Quarter

Today's Extremes

State Highs State Lows

Community

WunderPhotos

Upload Photos

1,746,337 photos uploaded!

WunderBlogs® & News

Nearby

Snow Depth

Station Depth Elevation
Owl Creek 0 in 8975 ft
Casper Mountain 0 in 7850 ft
Reno Hill 0 in 8500 ft
Thumb Divide 0 in 7980 ft
Base Camp 0 in 7030 ft

Earthquake Activity

City Distance Mag. Time & Date
No recent earthquake activity has been reported nearby.
Minimum magnitude displayed is 2.5.

Coastal Water Temperatures

Place Temperature
No Stations Reporting

Nearby Weather Stations